Time;durP1;ratioP1;P1;durP2;ratioP2;P2;SDS_P1;SDS_P2;PMS_P1;PMS_P2;Temp;Humidity;BMP_temperature;BMP_pressure;BME280_temperature;BME280_humidity;BME280_pressure;Samples;Min_cycle;Max_cycle;Signal;HPM_P1;HPM_P2
2022/02/22 00:01:36;;;;;;;26.60;3.38;;;6.40;99.90;;;;;;5032491;28;20499;-44
2022/02/22 00:04:01;;;;;;;26.55;3.17;;;6.40;99.90;;;;;;5031088;28;20029;-33
2022/02/22 00:06:27;;;;;;;30.85;3.53;;;6.40;99.90;;;;;;5024982;28;20040;-30
2022/02/22 00:08:53;;;;;;;36.63;3.15;;;6.30;99.90;;;;;;5026157;28;20056;-36
2022/02/22 00:11:18;;;;;;;24.52;2.53;;;6.30;99.90;;;;;;5032275;28;20036;-31
2022/02/22 00:13:44;;;;;;;24.00;3.10;;;6.20;99.90;;;;;;5029938;28;20029;-33
2022/02/22 00:16:09;;;;;;;39.95;3.88;;;6.20;99.90;;;;;;5027170;28;20021;-30
2022/02/22 00:18:35;;;;;;;18.67;2.42;;;6.20;99.90;;;;;;5034160;28;20467;-33
2022/02/22 00:21:01;;;;;;;21.38;3.88;;;6.20;99.90;;;;;;5031381;28;20021;-32
2022/02/22 00:23:27;;;;;;;15.48;2.03;;;6.20;99.90;;;;;;5031967;28;20028;-36
2022/02/22 00:25:52;;;;;;;20.35;2.42;;;6.10;99.90;;;;;;5031200;28;20049;-32
2022/02/22 00:28:20;;;;;;;28.73;3.30;;;6.10;99.90;;;;;;5031651;28;20389;-35
2022/02/22 00:30:47;;;;;;;23.13;2.67;;;6.10;99.90;;;;;;5030876;28;20104;-33
2022/02/22 00:33:12;;;;;;;27.03;3.07;;;6.10;99.90;;;;;;5032049;28;20030;-35
2022/02/22 00:35:38;;;;;;;20.25;2.30;;;6.10;99.90;;;;;;5031425;28;20029;-32
2022/02/22 00:38:04;;;;;;;26.73;3.10;;;6.10;99.90;;;;;;5031384;28;20017;-37
2022/02/22 00:40:29;;;;;;;24.77;2.95;;;6.10;99.90;;;;;;5031456;28;20033;-32
2022/02/22 00:42:55;;;;;;;33.03;3.83;;;6.10;99.90;;;;;;5025731;28;20065;-34
2022/02/22 00:45:20;;;;;;;18.63;3.03;;;6.20;99.90;;;;;;5027237;28;20549;-35
2022/02/22 00:47:46;;;;;;;38.22;4.15;;;6.20;99.90;;;;;;5027155;28;20026;-31
2022/02/22 00:50:12;;;;;;;38.97;3.25;;;6.20;99.90;;;;;;5027513;28;20032;-37
2022/02/22 00:52:38;;;;;;;36.13;3.78;;;6.10;99.90;;;;;;5026887;28;20030;-35
2022/02/22 00:55:04;;;;;;;17.48;2.70;;;6.20;99.90;;;;;;5016356;28;20105;-32
2022/02/22 00:57:29;;;;;;;30.85;3.03;;;6.10;99.90;;;;;;5027298;28;20091;-33
2022/02/22 00:59:55;;;;;;;23.10;2.30;;;6.10;99.90;;;;;;5035574;28;20025;-33
2022/02/22 01:02:21;;;;;;;26.67;4.35;;;6.00;99.90;;;;;;5035357;28;20022;-31
2022/02/22 01:04:46;;;;;;;25.20;3.78;;;6.00;99.90;;;;;;5033920;28;20029;-34
2022/02/22 01:07:16;;;;;;;22.25;2.97;;;6.00;99.90;;;;;;5035281;28;20021;-31
2022/02/22 01:09:43;;;;;;;22.27;2.72;;;5.90;99.90;;;;;;5035506;28;20382;-33
2022/02/22 01:12:09;;;;;;;43.23;3.87;;;6.00;99.90;;;;;;5035205;28;20477;-38
2022/02/22 01:14:35;;;;;;;23.52;3.53;;;5.90;99.90;;;;;;5034705;28;20028;-32
2022/02/22 01:17:00;;;;;;;27.35;3.33;;;5.90;99.90;;;;;;5034357;28;20025;-30
2022/02/22 01:19:26;;;;;;;20.27;2.63;;;5.90;99.90;;;;;;5034232;28;20070;-35
2022/02/22 01:21:52;;;;;;;18.98;2.63;;;5.80;99.90;;;;;;5018479;28;20038;-37
2022/02/22 01:24:17;;;;;;;39.50;5.40;;;5.80;99.90;;;;;;5035107;28;20026;-31
2022/02/22 01:26:43;;;;;;;23.27;2.97;;;5.80;99.90;;;;;;5034414;28;20032;-34
2022/02/22 01:29:08;;;;;;;22.05;3.13;;;5.80;99.90;;;;;;5034185;28;20136;-31
2022/02/22 01:31:34;;;;;;;41.67;3.67;;;5.80;99.90;;;;;;5035163;28;20474;-42
2022/02/22 01:33:59;;;;;;;32.05;3.83;;;5.80;99.90;;;;;;5035256;28;20051;-31
2022/02/22 01:36:27;;;;;;;23.00;3.35;;;5.80;99.90;;;;;;5034701;28;20032;-36
2022/02/22 01:38:53;;;;;;;34.03;3.83;;;5.80;99.90;;;;;;5032273;28;20060;-30
2022/02/22 01:41:21;;;;;;;26.02;2.78;;;5.80;99.90;;;;;;5035760;28;20359;-31
2022/02/22 01:43:47;;;;;;;32.03;3.60;;;5.80;99.90;;;;;;5034864;28;20035;-38
2022/02/22 01:46:13;;;;;;;20.65;4.47;;;5.80;99.90;;;;;;5034532;28;20034;-34
2022/02/22 01:48:39;;;;;;;16.17;2.70;;;5.80;99.90;;;;;;5034723;28;20026;-49
2022/02/22 01:51:04;;;;;;;36.63;3.67;;;5.80;99.90;;;;;;5033895;28;20072;-40
2022/02/22 01:53:30;;;;;;;13.63;3.55;;;5.70;99.90;;;;;;5034382;28;20018;-31
2022/02/22 01:55:56;;;;;;;24.08;3.08;;;5.70;99.90;;;;;;5032731;28;20135;-34
2022/02/22 01:58:21;;;;;;;28.35;4.50;;;5.70;99.90;;;;;;5032892;28;20029;-31
2022/02/22 02:00:47;;;;;;;25.33;4.80;;;5.70;99.90;;;;;;5029101;28;20022;-36
2022/02/22 02:03:14;;;;;;;27.77;3.20;;;5.70;99.90;;;;;;5033894;28;20498;-35
2022/02/22 02:05:39;;;;;;;18.83;2.95;;;5.60;99.90;;;;;;5012652;28;20121;-30
2022/02/22 02:08:05;;;;;;;23.45;2.85;;;5.60;99.90;;;;;;5029832;28;20148;-34
2022/02/22 02:10:31;;;;;;;25.58;3.67;;;5.70;99.90;;;;;;5031252;28;20056;-30
2022/02/22 02:12:56;;;;;;;19.02;2.63;;;5.60;99.90;;;;;;5016479;28;20116;-31
2022/02/22 02:15:22;;;;;;;22.98;2.80;;;5.60;99.90;;;;;;5032533;28;20025;-31
2022/02/22 02:17:47;;;;;;;29.13;3.13;;;5.60;99.90;;;;;;5025524;28;20038;-36
2022/02/22 02:20:13;;;;;;;35.95;3.65;;;5.60;99.90;;;;;;5032915;28;20040;-37
2022/02/22 02:22:39;;;;;;;19.05;3.72;;;5.60;99.90;;;;;;5033810;28;20036;-34
2022/02/22 02:25:06;;;;;;;25.30;3.00;;;5.50;99.90;;;;;;5034070;28;20064;-37
2022/02/22 02:27:32;;;;;;;37.35;3.72;;;5.50;99.90;;;;;;5031371;28;20029;-32
2022/02/22 02:29:59;;;;;;;19.33;2.75;;;5.50;99.90;;;;;;5016032;28;20077;-36
2022/02/22 02:32:28;;;;;;;22.80;2.70;;;5.50;99.90;;;;;;5033705;28;20029;-33
2022/02/22 02:34:54;;;;;;;9.25;1.58;;;5.50;99.90;;;;;;5033599;28;20469;-36
2022/02/22 02:37:20;;;;;;;19.30;2.83;;;5.60;99.90;;;;;;5031374;28;20032;-33
2022/02/22 02:39:46;;;;;;;32.65;3.53;;;5.60;99.90;;;;;;5032385;28;20448;-30
2022/02/22 02:42:11;;;;;;;23.80;2.47;;;5.60;99.90;;;;;;5014440;28;20044;-30
2022/02/22 02:44:37;;;;;;;21.15;2.42;;;5.60;99.90;;;;;;5017391;28;20032;-32
2022/02/22 02:47:06;;;;;;;22.95;2.00;;;5.60;99.90;;;;;;5017483;28;20037;-33
2022/02/22 02:49:32;;;;;;;25.35;2.22;;;5.60;99.90;;;;;;5032189;28;20290;-35
2022/02/22 02:51:57;;;;;;;21.80;2.47;;;5.60;99.90;;;;;;5029239;28;20041;-33
2022/02/22 02:54:42;;;;;;;16.52;2.83;;;5.60;99.90;;;;;;5033513;28;20034;-32
2022/02/22 02:57:08;;;;;;;17.52;3.22;;;5.60;99.90;;;;;;5024123;28;20025;-35
2022/02/22 02:59:33;;;;;;;17.75;2.53;;;5.60;99.90;;;;;;5031863;28;20048;-33
2022/02/22 03:01:59;;;;;;;23.27;2.67;;;5.60;99.90;;;;;;5032944;28;20029;-30
2022/02/22 03:04:25;;;;;;;17.73;2.47;;;5.70;99.90;;;;;;5015181;28;20397;-36
2022/02/22 03:06:51;;;;;;;31.00;3.70;;;5.70;99.90;;;;;;5032969;28;20025;-35
2022/02/22 03:09:16;;;;;;;13.73;2.35;;;5.70;99.90;;;;;;5034971;28;20045;-34
2022/02/22 03:11:42;;;;;;;23.67;2.58;;;5.70;99.90;;;;;;5032650;28;20037;-30
2022/02/22 03:14:08;;;;;;;18.48;2.83;;;5.70;99.90;;;;;;5032262;28;20025;-36
2022/02/22 03:16:34;;;;;;;21.80;3.03;;;5.70;99.90;;;;;;5025430;28;20025;-30
2022/02/22 03:19:02;;;;;;;28.02;3.63;;;5.70;99.90;;;;;;5023789;28;20413;-32
2022/02/22 03:21:29;;;;;;;24.52;2.75;;;5.70;99.90;;;;;;5033137;28;20029;-36
2022/02/22 03:23:55;;;;;;;19.95;2.35;;;5.70;99.90;;;;;;5033131;28;20068;-33
2022/02/22 03:26:21;;;;;;;20.83;3.28;;;5.70;99.90;;;;;;5030138;28;20060;-33
2022/02/22 03:28:46;;;;;;;17.60;2.53;;;5.80;99.90;;;;;;5032847;28;20072;-31
2022/02/22 03:31:12;;;;;;;24.63;2.60;;;5.70;99.90;;;;;;5032555;28;20033;-37
2022/02/22 03:33:38;;;;;;;22.02;1.90;;;5.80;99.90;;;;;;5033284;28;20409;-34
2022/02/22 03:36:04;;;;;;;17.63;2.85;;;5.80;99.90;;;;;;5029739;28;20029;-29
2022/02/22 03:38:30;;;;;;;31.95;4.18;;;5.80;99.90;;;;;;5032862;28;20529;-31
2022/02/22 03:40:56;;;;;;;12.27;2.08;;;5.70;99.90;;;;;;5032416;28;20120;-34
2022/02/22 03:43:21;;;;;;;24.90;3.55;;;5.80;99.90;;;;;;5032031;28;20100;-36
2022/02/22 03:45:47;;;;;;;17.55;2.35;;;5.80;99.90;;;;;;5028697;28;20033;-33
2022/02/22 03:48:13;;;;;;;16.40;3.65;;;5.80;99.90;;;;;;5032995;28;20076;-43
2022/02/22 03:50:39;;;;;;;14.52;2.20;;;5.90;99.90;;;;;;5032198;28;20506;-37
2022/02/22 03:53:04;;;;;;;18.33;1.75;;;5.90;99.90;;;;;;5022131;28;20026;-31
2022/02/22 03:55:30;;;;;;;19.92;4.13;;;5.80;99.90;;;;;;5040950;28;20018;-30
2022/02/22 03:57:56;;;;;;;24.63;2.13;;;5.80;99.90;;;;;;5032700;28;20033;-33
2022/02/22 04:00:23;;;;;;;19.20;2.42;;;5.80;99.90;;;;;;5032325;28;20378;-36
2022/02/22 04:02:49;;;;;;;18.27;2.78;;;5.80;99.90;;;;;;5026076;28;20557;-31
2022/02/22 04:05:17;;;;;;;14.05;2.38;;;5.80;99.90;;;;;;5032296;28;20053;-36
2022/02/22 04:07:43;;;;;;;25.00;3.00;;;5.70;99.90;;;;;;5032221;28;20429;-30
2022/02/22 04:10:10;;;;;;;16.42;2.47;;;5.70;99.90;;;;;;5032265;28;20021;-30
2022/02/22 04:12:36;;;;;;;24.77;2.80;;;5.70;99.90;;;;;;5028425;28;20029;-32
2022/02/22 04:15:03;;;;;;;20.23;2.63;;;5.60;99.90;;;;;;5032050;28;20029;-31
2022/02/22 04:17:29;;;;;;;19.50;3.13;;;5.60;99.90;;;;;;5032260;28;20025;-35
2022/02/22 04:19:55;;;;;;;25.27;2.28;;;5.60;99.90;;;;;;5032113;28;20115;-32
2022/02/22 04:22:21;;;;;;;12.23;2.08;;;5.60;99.90;;;;;;5028847;28;20017;-33
2022/02/22 04:24:47;;;;;;;16.52;2.22;;;5.60;99.90;;;;;;5034655;28;20440;-32
2022/02/22 04:27:13;;;;;;;13.32;3.25;;;5.50;99.90;;;;;;5036043;28;20030;-34
2022/02/22 04:29:39;;;;;;;22.30;2.28;;;5.50;99.90;;;;;;5035880;28;20040;-31
2022/02/22 04:32:05;;;;;;;12.88;2.55;;;5.50;99.90;;;;;;5030845;28;20033;-33
2022/02/22 04:34:31;;;;;;;16.92;2.10;;;5.50;99.90;;;;;;5036050;28;20017;-36
2022/02/22 04:36:56;;;;;;;14.40;1.98;;;5.50;99.90;;;;;;5035974;28;20041;-34
2022/02/22 04:39:22;;;;;;;16.23;2.08;;;5.40;99.90;;;;;;5035937;28;20018;-32
2022/02/22 04:41:49;;;;;;;16.88;2.90;;;5.40;99.90;;;;;;5031419;28;20026;-32
2022/02/22 04:44:14;;;;;;;13.45;2.20;;;5.40;99.90;;;;;;5035971;28;20481;-37
2022/02/22 04:46:40;;;;;;;15.05;1.65;;;5.30;99.90;;;;;;5035815;28;20029;-31
2022/02/22 04:49:09;;;;;;;25.63;2.65;;;5.30;99.90;;;;;;5035646;28;20116;-30
2022/02/22 04:51:39;;;;;;;19.95;2.20;;;5.30;99.90;;;;;;5029290;28;20045;-30
2022/02/22 04:54:05;;;;;;;17.67;2.50;;;5.30;99.90;;;;;;5024160;28;20104;-32
2022/02/22 04:56:31;;;;;;;19.20;1.83;;;5.30;99.90;;;;;;5035757;28;20123;-31
2022/02/22 04:58:57;;;;;;;20.27;3.65;;;5.20;99.90;;;;;;5035631;28;20103;-32
2022/02/22 05:01:23;;;;;;;14.52;1.95;;;5.20;99.90;;;;;;5031222;28;20026;-37
2022/02/22 05:03:48;;;;;;;15.57;2.22;;;5.20;99.90;;;;;;5031176;28;20029;-35
2022/02/22 05:06:14;;;;;;;9.32;1.80;;;5.20;99.90;;;;;;5035271;28;20061;-33
2022/02/22 05:08:40;;;;;;;18.33;2.25;;;5.20;99.90;;;;;;5035479;28;20071;-35
2022/02/22 05:11:06;;;;;;;21.42;2.90;;;5.20;99.90;;;;;;5030715;28;20025;-30
2022/02/22 05:13:32;;;;;;;16.50;2.10;;;5.10;99.90;;;;;;5026843;28;20385;-42
2022/02/22 05:15:58;;;;;;;17.25;2.78;;;5.10;99.90;;;;;;5035193;28;20072;-31
2022/02/22 05:18:24;;;;;;;19.33;1.98;;;5.10;99.90;;;;;;5034776;28;20025;-36
2022/02/22 05:20:55;;;;;;;16.92;1.95;;;5.10;99.90;;;;;;5018553;28;20057;-31
2022/02/22 05:23:26;;;;;;;15.60;2.20;;;5.10;99.90;;;;;;5025504;28;20512;-32
2022/02/22 05:25:52;;;;;;;14.95;1.98;;;5.10;99.90;;;;;;5034888;28;20039;-45
2022/02/22 05:28:18;;;;;;;23.85;3.28;;;5.10;99.90;;;;;;5035202;28;20363;-33
2022/02/22 05:30:47;;;;;;;19.40;2.28;;;5.00;99.90;;;;;;5024392;28;20144;-34
2022/02/22 05:33:13;;;;;;;17.20;2.67;;;5.10;99.90;;;;;;5035210;28;20026;-31
2022/02/22 05:35:39;;;;;;;24.38;2.75;;;5.10;99.90;;;;;;5033954;28;20432;-33
2022/02/22 05:38:04;;;;;;;13.23;2.20;;;5.10;99.90;;;;;;5034949;28;20130;-31
2022/02/22 05:40:30;;;;;;;12.07;1.83;;;5.00;99.90;;;;;;5018604;28;20057;-34
2022/02/22 05:42:56;;;;;;;21.17;2.47;;;5.00;99.90;;;;;;5015342;28;20030;-34
2022/02/22 05:45:22;;;;;;;22.38;2.25;;;5.00;99.90;;;;;;5034488;28;20029;-38
2022/02/22 05:47:47;;;;;;;16.15;2.03;;;4.90;99.90;;;;;;5034762;28;20433;-32
2022/02/22 05:50:13;;;;;;;16.90;3.22;;;5.00;99.90;;;;;;5032303;28;20044;-34
2022/02/22 05:52:39;;;;;;;20.10;2.22;;;5.00;99.90;;;;;;5027282;28;20473;-31
2022/02/22 05:55:05;;;;;;;14.15;1.63;;;5.10;99.90;;;;;;5034333;28;20021;-31
2022/02/22 05:57:30;;;;;;;16.55;2.38;;;5.00;99.90;;;;;;5034614;28;20025;-33
2022/02/22 05:59:56;;;;;;;19.77;2.08;;;5.10;99.90;;;;;;5034315;28;20112;-33
2022/02/22 06:02:22;;;;;;;14.52;2.88;;;5.10;99.90;;;;;;5031646;28;20103;-34
2022/02/22 06:04:47;;;;;;;11.20;1.33;;;5.10;99.90;;;;;;5023615;28;20026;-32
2022/02/22 06:07:13;;;;;;;23.17;2.13;;;5.10;99.90;;;;;;5034016;28;20018;-32
2022/02/22 06:09:39;;;;;;;21.25;2.47;;;5.10;99.90;;;;;;5034464;28;20037;-39
2022/02/22 06:12:05;;;;;;;20.17;2.53;;;5.10;99.90;;;;;;5034161;28;20061;-33
2022/02/22 06:14:31;;;;;;;23.20;2.42;;;5.10;99.90;;;;;;5023110;28;20029;-35
2022/02/22 06:16:57;;;;;;;20.02;2.15;;;5.10;99.90;;;;;;5016312;28;20028;-37
2022/02/22 06:19:23;;;;;;;14.35;3.53;;;5.20;99.90;;;;;;5033925;28;20098;-33
2022/02/22 06:21:48;;;;;;;8.68;1.67;;;5.20;99.90;;;;;;5033699;28;20033;-32
2022/02/22 06:24:15;;;;;;;19.25;2.30;;;5.30;99.90;;;;;;5025352;28;20100;-33
2022/02/22 06:26:40;;;;;;;14.80;2.50;;;5.30;99.90;;;;;;5033624;28;20128;-35
2022/02/22 06:29:06;;;;;;;16.42;3.00;;;5.30;99.90;;;;;;5033500;28;20112;-37
2022/02/22 06:31:31;;;;;;;24.30;2.85;;;5.30;99.90;;;;;;5034107;28;20025;-31
2022/02/22 06:33:57;;;;;;;14.73;2.53;;;5.30;99.90;;;;;;5031110;28;20029;-30
2022/02/22 06:36:22;;;;;;;16.85;1.90;;;5.30;99.90;;;;;;5033950;28;20028;-33
2022/02/22 06:38:50;;;;;;;20.17;2.97;;;5.30;99.90;;;;;;5029056;28;20041;-58
2022/02/22 06:41:15;;;;;;;8.82;2.75;;;5.40;99.90;;;;;;5033611;28;20053;-30
2022/02/22 06:43:41;;;;;;;9.85;2.00;;;5.50;99.90;;;;;;5033726;28;20508;-35
2022/02/22 06:46:07;;;;;;;21.90;1.85;;;5.40;99.90;;;;;;5032025;28;20052;-33
2022/02/22 06:48:32;;;;;;;8.68;2.25;;;5.50;99.90;;;;;;5033457;28;20013;-31
2022/02/22 06:50:58;;;;;;;13.93;2.13;;;5.50;99.90;;;;;;5033277;28;20053;-33
2022/02/22 06:53:23;;;;;;;17.98;2.15;;;5.50;99.90;;;;;;5032396;28;20355;-56
2022/02/22 06:55:49;;;;;;;18.02;2.58;;;5.50;99.90;;;;;;5033369;28;20021;-35
2022/02/22 06:58:15;;;;;;;15.68;2.88;;;5.50;99.90;;;;;;5033528;28;20030;-34
2022/02/22 07:00:43;;;;;;;18.92;2.88;;;5.50;99.90;;;;;;5032781;28;20048;-33
2022/02/22 07:03:09;;;;;;;;;;;5.50;99.90;;;;;;5022551;28;20025;-32
2022/02/22 07:05:35;;;;;;;15.98;1.98;;;5.50;99.90;;;;;;5033148;28;19962;-33
2022/02/22 07:08:01;;;;;;;12.68;1.83;;;5.50;99.90;;;;;;5031247;28;20044;-31
2022/02/22 07:10:29;;;;;;;10.30;1.83;;;5.60;99.90;;;;;;5024582;28;20021;-35
2022/02/22 07:12:55;;;;;;;12.67;2.23;;;5.70;99.90;;;;;;5028228;28;20036;-36
2022/02/22 07:15:21;;;;;;;22.88;2.47;;;5.70;99.90;;;;;;5028083;28;20306;-34
2022/02/22 07:17:57;;;;;;;11.00;2.47;;;5.80;99.90;;;;;;5032467;28;20022;-30
2022/02/22 07:20:25;;;;;;;14.18;1.98;;;5.90;99.90;;;;;;5033017;28;20032;-35
2022/02/22 07:22:52;;;;;;;9.80;2.53;;;5.90;99.90;;;;;;5033070;28;20381;-35
2022/02/22 07:25:19;;;;;;;17.73;1.70;;;6.00;99.90;;;;;;5034808;28;20075;-35
2022/02/22 07:27:45;;;;;;;12.00;1.58;;;6.00;99.90;;;;;;5041841;28;20359;-35
2022/02/22 07:30:15;;;;;;;14.98;1.73;;;6.00;99.90;;;;;;5048899;28;20075;-35
2022/02/22 07:32:41;;;;;;;18.85;2.78;;;6.10;99.90;;;;;;5026283;28;20026;-37
2022/02/22 07:35:08;;;;;;;13.68;1.70;;;6.20;99.90;;;;;;5032409;28;20033;-35
2022/02/22 07:37:36;;;;;;;10.93;1.95;;;6.20;99.90;;;;;;5032616;28;20056;-36
2022/02/22 07:40:02;;;;;;;27.23;1.80;;;6.30;99.90;;;;;;5033306;28;20022;-38
2022/02/22 07:42:28;;;;;;;9.07;1.65;;;6.40;99.90;;;;;;5023375;28;20030;-33
2022/02/22 07:44:54;;;;;;;6.32;1.38;;;6.50;99.90;;;;;;5032552;28;20079;-59
2022/02/22 07:47:19;;;;;;;11.70;1.95;;;6.50;99.90;;;;;;5031443;28;20100;-35
2022/02/22 07:49:45;;;;;;;15.63;1.92;;;6.50;99.90;;;;;;5029805;28;20025;-32
2022/02/22 07:52:10;;;;;;;13.30;2.15;;;6.60;99.90;;;;;;5020157;28;20045;-35
2022/02/22 07:54:36;;;;;;;8.82;1.95;;;6.60;99.90;;;;;;5032243;28;20022;-33
2022/02/22 07:57:03;;;;;;;23.15;2.88;;;6.70;99.90;;;;;;5031901;28;20493;-31
2022/02/22 07:59:28;;;;;;;13.00;2.28;;;6.70;99.90;;;;;;5032304;28;20029;-31
2022/02/22 08:01:54;;;;;;;9.50;2.20;;;6.70;99.90;;;;;;5032450;28;20482;-31
2022/02/22 08:04:20;;;;;;;23.98;2.75;;;6.80;99.90;;;;;;5032377;28;20366;-30
2022/02/22 08:06:46;;;;;;;15.00;1.75;;;6.80;99.90;;;;;;5032515;28;20025;-34
2022/02/22 08:09:12;;;;;;;23.60;2.53;;;6.80;99.90;;;;;;5031656;28;20478;-31
2022/02/22 08:11:38;;;;;;;15.57;1.90;;;6.80;99.90;;;;;;5032003;28;20026;-33
2022/02/22 08:14:05;;;;;;;14.30;2.92;;;6.90;99.90;;;;;;5032401;28;20031;-32
2022/02/22 08:16:31;;;;;;;13.88;1.95;;;7.00;99.90;;;;;;5028362;28;20053;-38
2022/02/22 08:18:57;;;;;;;17.80;2.08;;;7.00;99.90;;;;;;5014349;28;20065;-31
2022/02/22 08:21:23;;;;;;;6.55;2.10;;;7.10;99.90;;;;;;5032466;28;20064;-39
2022/02/22 08:23:49;;;;;;;15.35;2.05;;;7.20;99.90;;;;;;5031984;28;20041;-31
2022/02/22 08:26:16;;;;;;;10.85;2.15;;;7.30;99.90;;;;;;5027538;28;20133;-34
2022/02/22 08:28:42;;;;;;;15.17;3.10;;;7.40;99.90;;;;;;5028504;28;20029;-39
2022/02/22 08:31:08;;;;;;;8.75;2.00;;;7.40;99.90;;;;;;5030135;28;20025;-33
2022/02/22 08:33:33;;;;;;;22.45;3.08;;;7.50;99.90;;;;;;5027763;28;20015;-31
2022/02/22 08:35:59;;;;;;;31.30;4.35;;;7.50;99.90;;;;;;5025329;28;20109;-30
2022/02/22 08:38:24;;;;;;;19.58;2.67;;;7.60;99.90;;;;;;5031125;28;20389;-32
2022/02/22 08:40:50;;;;;;;22.45;3.65;;;7.70;99.90;;;;;;5032189;28;20055;-31
2022/02/22 08:43:17;;;;;;;21.00;4.15;;;7.70;99.90;;;;;;5029656;28;20438;-40
2022/02/22 08:45:43;;;;;;;24.67;3.38;;;7.70;99.90;;;;;;5032144;28;20105;-32
2022/02/22 08:48:10;;;;;;;28.65;3.53;;;7.80;99.90;;;;;;5032054;28;20104;-31
2022/02/22 08:50:36;;;;;;;18.20;3.10;;;7.70;99.90;;;;;;5031257;28;20167;-30
2022/02/22 08:53:02;;;;;;;18.40;3.28;;;7.80;99.90;;;;;;5030836;28;20460;-32
2022/02/22 08:55:28;;;;;;;13.10;2.30;;;7.90;99.90;;;;;;5032339;28;20025;-38
2022/02/22 08:57:56;;;;;;;21.75;4.60;;;8.00;99.90;;;;;;5031678;28;20041;-32
2022/02/22 09:00:23;;;;;;;;;;;8.10;99.90;;;;;;5028623;28;20516;-33
2022/02/22 09:02:53;;;;;;;24.05;3.10;;;8.10;99.90;;;;;;5031868;28;19963;-35
2022/02/22 09:05:19;;;;;;;26.45;3.45;;;8.10;99.90;;;;;;5032045;28;20444;-34
2022/02/22 09:07:45;;;;;;;15.25;2.83;;;8.20;99.90;;;;;;5031308;28;20484;-30
2022/02/22 09:10:13;;;;;;;15.73;2.85;;;8.30;99.90;;;;;;5031076;28;20548;-33
2022/02/22 09:12:40;;;;;;;22.83;3.35;;;8.30;99.90;;;;;;5017411;28;20022;-30
2022/02/22 09:15:08;;;;;;;15.70;3.33;;;8.30;99.90;;;;;;5035603;28;20489;-31
2022/02/22 09:17:33;;;;;;;37.63;3.88;;;8.30;99.90;;;;;;5030311;28;20092;-34
2022/02/22 09:20:02;;;;;;;26.08;3.83;;;8.30;99.90;;;;;;5035119;28;20048;-36
2022/02/22 09:22:27;;;;;;;29.83;4.57;;;8.30;99.90;;;;;;5033666;28;20109;-31
2022/02/22 09:24:53;;;;;;;25.48;3.50;;;8.30;99.90;;;;;;5032353;28;20025;-35
2022/02/22 09:27:19;;;;;;;20.45;3.05;;;8.30;99.90;;;;;;5035697;28;20030;-32
2022/02/22 09:29:44;;;;;;;10.75;2.78;;;8.30;99.90;;;;;;5030592;28;20405;-37
2022/02/22 09:32:11;;;;;;;18.63;3.17;;;8.30;99.90;;;;;;5027030;28;20090;-33
2022/02/22 09:34:36;;;;;;;23.67;4.03;;;8.30;99.90;;;;;;5008473;28;20052;-34
2022/02/22 09:37:03;;;;;;;13.32;3.47;;;8.40;99.90;;;;;;5026953;28;20037;-39
2022/02/22 09:39:30;;;;;;;21.98;4.60;;;8.40;99.90;;;;;;5026091;28;20029;-38
2022/02/22 09:41:56;;;;;;;21.40;3.58;;;8.40;99.90;;;;;;5031458;28;20075;-33
2022/02/22 09:44:22;;;;;;;18.27;3.38;;;8.40;99.90;;;;;;5035139;28;20474;-31
2022/02/22 09:46:49;;;;;;;19.85;4.80;;;8.40;99.90;;;;;;5037237;28;20036;-34
2022/02/22 09:49:14;;;;;;;20.40;4.18;;;8.40;99.90;;;;;;5034878;28;20030;-34
2022/02/22 09:51:40;;;;;;;18.02;4.43;;;8.30;99.90;;;;;;5028285;28;20063;-34
2022/02/22 09:54:06;;;;;;;18.52;4.88;;;8.30;99.90;;;;;;5033817;28;20438;-39
2022/02/22 09:56:33;;;;;;;24.13;4.32;;;8.30;99.90;;;;;;5034618;28;20390;-32
2022/02/22 09:58:58;;;;;;;19.95;3.85;;;8.30;99.90;;;;;;5034876;28;20105;-31
2022/02/22 10:01:25;;;;;;;19.10;4.95;;;8.40;99.90;;;;;;5033728;28;20093;-41
2022/02/22 10:04:00;;;;;;;22.48;4.35;;;8.40;99.90;;;;;;5034591;28;20021;-31
2022/02/22 10:06:26;;;;;;;14.57;4.72;;;8.40;99.90;;;;;;5034838;28;20489;-30
2022/02/22 10:08:55;;;;;;;19.10;4.43;;;8.40;99.90;;;;;;5026623;28;20104;-32
2022/02/22 10:11:22;;;;;;;33.25;4.20;;;8.40;99.90;;;;;;5023530;28;20572;-31
2022/02/22 10:13:47;;;;;;;24.65;5.25;;;8.40;99.90;;;;;;5030385;28;20018;-32
2022/02/22 10:16:15;;;;;;;28.35;4.78;;;8.50;99.90;;;;;;5026093;28;20031;-33
2022/02/22 10:18:52;;;;;;;24.50;4.55;;;8.60;99.90;;;;;;5025563;28;20061;-31
2022/02/22 10:21:19;;;;;;;28.23;4.85;;;8.60;99.90;;;;;;5025685;28;20389;-36
2022/02/22 10:23:45;;;;;;;20.53;3.73;;;8.60;99.90;;;;;;5025628;28;21026;-41
2022/02/22 10:26:22;;;;;;;17.67;3.90;;;8.60;99.90;;;;;;5025732;28;20052;-30
2022/02/22 10:28:48;;;;;;;24.67;4.18;;;8.60;99.90;;;;;;5028815;28;20033;-30
2022/02/22 10:31:13;;;;;;;20.17;4.00;;;8.70;99.90;;;;;;5025919;28;20397;-37
2022/02/22 10:33:45;;;;;;;28.10;4.35;;;8.80;99.90;;;;;;5030039;28;20164;-34
2022/02/22 10:36:20;;;;;;;22.85;3.70;;;8.90;99.90;;;;;;5031774;28;20462;-35
2022/02/22 10:38:46;;;;;;;32.80;11.63;;;8.90;99.90;;;;;;5031177;28;20390;-29
2022/02/22 10:41:17;;;;;;;22.27;5.53;;;8.90;99.90;;;;;;5030811;28;20026;-34
2022/02/22 10:43:55;;;;;;;25.50;6.93;;;8.90;99.90;;;;;;5032132;28;20033;-36
2022/02/22 10:46:26;;;;;;;30.95;5.45;;;8.80;99.90;;;;;;5013320;28;20018;-34
2022/02/22 10:49:12;;;;;;;29.83;3.83;;;8.80;99.90;;;;;;5029159;28;20113;-37
2022/02/22 10:51:41;;;;;;;20.50;4.00;;;8.80;99.90;;;;;;5010360;28;20033;-34
2022/02/22 10:54:08;;;;;;;28.10;4.45;;;8.70;99.90;;;;;;5027504;28;20056;-34
2022/02/22 10:56:35;;;;;;;27.27;4.50;;;8.60;99.90;;;;;;5031549;28;20421;-31
2022/02/22 10:59:02;;;;;;;18.63;4.05;;;8.50;99.90;;;;;;5026014;28;20079;-38
2022/02/22 11:01:28;;;;;;;31.75;4.15;;;8.40;99.90;;;;;;5027320;28;20108;-37
2022/02/22 11:03:54;;;;;;;36.63;5.72;;;8.40;99.90;;;;;;5032241;28;20033;-35
2022/02/22 11:06:20;;;;;;;19.33;3.85;;;8.40;99.90;;;;;;5023394;28;20117;-34
2022/02/22 11:08:51;;;;;;;29.08;6.63;;;8.40;99.90;;;;;;5028944;28;20017;-34
2022/02/22 11:11:43;;;;;;;28.30;4.53;;;8.40;99.90;;;;;;5029843;28;20525;-36
2022/02/22 11:14:30;;;;;;;34.65;4.78;;;8.40;99.90;;;;;;5031568;28;20045;-31
2022/02/22 11:17:16;;;;;;;16.27;3.92;;;8.40;99.90;;;;;;5030275;28;20033;-31
2022/02/22 11:19:45;;;;;;;21.48;3.60;;;8.40;99.90;;;;;;5016473;28;20037;-34
2022/02/22 11:22:19;;;;;;;26.25;4.40;;;8.40;99.90;;;;;;5031688;28;20021;-39
2022/02/22 11:24:51;;;;;;;23.77;5.13;;;8.40;99.90;;;;;;5032992;28;20441;-36
2022/02/22 11:27:46;;;;;;;23.35;4.38;;;8.50;99.90;;;;;;5032393;28;20029;-35
2022/02/22 11:30:15;;;;;;;19.20;3.45;;;8.60;99.90;;;;;;5004717;28;20049;-32
2022/02/22 11:33:06;;;;;;;24.85;5.43;;;8.70;99.90;;;;;;5032522;28;20128;-36
2022/02/22 11:35:48;;;;;;;31.95;5.43;;;8.70;99.90;;;;;;5023808;28;20075;-31
2022/02/22 11:38:14;;;;;;;25.73;3.60;;;8.70;99.90;;;;;;5033099;28;20018;-34
2022/02/22 11:40:40;;;;;;;26.67;4.32;;;8.80;99.90;;;;;;5032917;28;20032;-34
2022/02/22 11:43:18;;;;;;;28.38;5.38;;;8.90;99.90;;;;;;5030405;28;20064;-35
2022/02/22 11:45:46;;;;;;;22.25;4.60;;;8.90;99.90;;;;;;5031021;28;20041;-30
2022/02/22 11:48:23;;;;;;;19.90;5.65;;;9.00;99.90;;;;;;5032852;28;20478;-36
2022/02/22 11:50:52;;;;;;;20.33;5.05;;;9.10;99.90;;;;;;5019788;28;20447;-30
2022/02/22 11:53:22;;;;;;;21.55;4.38;;;9.20;99.90;;;;;;5026563;28;20085;-31
2022/02/22 11:55:50;;;;;;;27.20;4.18;;;9.30;99.90;;;;;;5030581;28;20076;-34
2022/02/22 11:58:22;;;;;;;25.85;5.75;;;9.40;99.90;;;;;;5032366;28;20024;-32
2022/02/22 12:00:57;;;;;;;22.33;4.82;;;9.50;99.90;;;;;;5031606;28;20405;-34
2022/02/22 12:03:24;;;;;;;17.25;5.25;;;9.40;99.90;;;;;;5031750;28;20026;-32
2022/02/22 12:06:09;;;;;;;18.65;5.55;;;9.50;99.90;;;;;;5032630;28;20034;-35
2022/02/22 12:08:40;;;;;;;21.48;6.18;;;9.50;99.90;;;;;;5030774;28;20492;-31
2022/02/22 12:11:17;;;;;;;24.65;5.88;;;9.50;99.90;;;;;;5032654;28;20035;-35
2022/02/22 12:13:49;;;;;;;29.02;4.65;;;9.70;99.90;;;;;;5032326;28;20069;-31
2022/02/22 12:16:24;;;;;;;23.10;5.43;;;9.70;99.90;;;;;;5032793;28;20381;-37
2022/02/22 12:18:52;;;;;;;25.50;5.63;;;9.60;99.90;;;;;;5030730;28;20026;-35
2022/02/22 12:21:19;;;;;;;34.10;6.25;;;9.60;99.90;;;;;;5032352;28;20029;-31
2022/02/22 12:23:46;;;;;;;28.50;5.15;;;9.60;99.90;;;;;;5031586;28;20021;-33
2022/02/22 12:26:15;;;;;;;20.30;5.28;;;9.60;99.90;;;;;;5016879;28;20033;-30
2022/02/22 12:28:50;;;;;;;28.10;6.47;;;9.70;99.90;;;;;;5032601;28;20532;-34
2022/02/22 12:31:36;;;;;;;22.13;4.50;;;9.80;99.90;;;;;;5031805;28;20091;-31
2022/02/22 12:34:08;;;;;;;22.38;4.20;;;9.90;99.90;;;;;;5028680;28;20033;-30
2022/02/22 12:36:34;;;;;;;28.42;5.28;;;9.90;99.90;;;;;;5030274;28;21521;-29
2022/02/22 12:39:06;;;;;;;20.17;5.25;;;9.90;99.90;;;;;;5031979;28;20021;-32
2022/02/22 12:41:40;;;;;;;31.83;5.15;;;9.90;99.90;;;;;;5026520;28;20057;-32
2022/02/22 12:44:13;;;;;;;32.38;6.07;;;10.00;99.90;;;;;;5029085;28;20029;-34
2022/02/22 12:46:40;;;;;;;22.25;5.10;;;10.10;99.90;;;;;;5035759;28;20025;-32
2022/02/22 12:49:08;;;;;;;21.30;5.03;;;10.20;99.90;;;;;;5021668;28;20018;-33